createdAt,value
2018-12-18T00:00:14.362Z,6.60
2018-12-18T01:02:20.777Z,6.60
2018-12-18T01:07:24.104Z,3.17
2018-12-18T01:12:27.428Z,4.53
2018-12-18T01:17:30.755Z,5.23
2018-12-18T01:22:34.096Z,3.63
2018-12-18T01:27:38.185Z,6.13
2018-12-18T02:30:30.051Z,3.70
2018-12-18T02:35:34.153Z,3.87
2018-12-18T02:40:37.482Z,3.27
2018-12-18T02:45:40.806Z,3.37
2018-12-18T02:50:44.899Z,3.63
2018-12-18T02:55:48.231Z,3.07
2018-12-18T04:04:15.833Z,3.20
2018-12-18T04:09:19.169Z,2.90
2018-12-18T04:14:22.504Z,3.90
2018-12-18T04:19:25.836Z,3.50
2018-12-18T04:24:29.945Z,2.63
2018-12-18T04:29:33.274Z,2.07
2018-12-18T05:31:40.341Z,4.20
2018-12-18T05:36:43.661Z,2.33
2018-12-18T05:41:47.001Z,3.97
2018-12-18T05:46:50.360Z,3.67
2018-12-18T05:51:53.681Z,4.20
2018-12-18T05:56:57.004Z,3.13
2018-12-18T07:05:21.008Z,4.27
2018-12-18T07:10:24.336Z,5.60
2018-12-18T07:15:27.653Z,3.00
2018-12-18T07:20:30.972Z,3.20
2018-12-18T07:25:34.299Z,2.47
2018-12-18T07:30:38.401Z,2.23
2018-12-18T08:32:44.069Z,2.63
2018-12-18T08:37:47.396Z,3.23
2018-12-18T08:42:51.489Z,2.23
2018-12-18T08:47:54.816Z,2.23
2018-12-18T08:52:58.141Z,1.23
2018-12-18T08:58:02.238Z,2.13
2018-12-18T10:00:31.177Z,2.20
2018-12-18T10:05:35.299Z,1.50
2018-12-18T10:10:39.397Z,0.93
2018-12-18T10:15:42.741Z,1.60
2018-12-18T10:20:46.864Z,0.90
2018-12-18T10:25:50.971Z,1.13
2018-12-18T11:34:16.814Z,1.70
2018-12-18T11:39:20.135Z,2.77
2018-12-18T11:44:23.468Z,4.23
2018-12-18T11:49:26.789Z,2.13
2018-12-18T11:54:30.108Z,1.70
2018-12-18T11:59:34.200Z,2.60
2018-12-18T13:01:42.072Z,3.33
2018-12-18T13:06:42.567Z,2.83
2018-12-18T13:11:46.659Z,2.53
2018-12-18T13:16:49.984Z,3.50
2018-12-18T13:21:53.321Z,3.33
2018-12-18T13:26:56.656Z,2.57
2018-12-18T14:35:24.728Z,4.43
2018-12-18T14:40:28.065Z,4.97
2018-12-18T14:45:31.396Z,5.17
2018-12-18T14:50:35.486Z,3.90
2018-12-18T14:55:38.811Z,4.97
2018-12-18T16:04:04.735Z,3.90
2018-12-18T16:09:08.072Z,6.10
2018-12-18T16:14:12.157Z,4.37
2018-12-18T16:19:15.487Z,4.77
2018-12-18T16:24:18.808Z,6.50
2018-12-18T16:29:22.135Z,5.90
2018-12-18T16:34:25.455Z,5.73
2018-12-18T16:39:29.545Z,5.60
2018-12-18T16:44:32.876Z,5.97
2018-12-18T16:49:36.974Z,6.63
2018-12-18T16:54:40.298Z,6.13
2018-12-18T16:59:43.639Z,5.23
2018-12-18T17:04:47.744Z,4.93
2018-12-18T17:09:51.069Z,4.77
2018-12-18T17:14:55.156Z,4.87
2018-12-18T17:19:58.476Z,5.87
2018-12-18T17:25:01.817Z,6.23
2018-12-18T17:30:14.388Z,4.90
2018-12-18T17:35:25.503Z,6.67
2018-12-18T17:40:32.642Z,4.60
2018-12-18T17:45:36.200Z,5.07
2018-12-18T17:50:39.566Z,5.43
2018-12-18T17:55:43.653Z,5.20
2018-12-18T18:00:46.985Z,4.97
2018-12-18T18:05:50.325Z,8.77
2018-12-18T18:10:53.666Z,9.10
2018-12-18T18:15:56.990Z,13.97
2018-12-18T18:21:00.326Z,12.60
2018-12-18T18:26:03.659Z,12.30
2018-12-18T18:31:07.758Z,12.57
2018-12-18T18:36:11.109Z,16.00
2018-12-18T18:41:14.438Z,13.13
2018-12-18T18:46:17.773Z,16.17
2018-12-18T18:51:21.105Z,13.60
2018-12-18T18:56:29.516Z,15.20
2018-12-18T19:01:33.775Z,14.67
2018-12-18T19:06:37.112Z,14.03
2018-12-18T19:11:40.454Z,12.13
2018-12-18T19:16:43.797Z,13.60
2018-12-18T19:21:47.149Z,16.83
2018-12-18T19:26:58.093Z,14.77
2018-12-18T19:32:14.313Z,13.70
2018-12-18T19:37:17.642Z,14.13
2018-12-18T19:42:21.740Z,13.70
2018-12-18T19:47:25.085Z,14.97
2018-12-18T19:52:28.446Z,12.70
2018-12-18T19:57:37.481Z,14.37
2018-12-18T20:02:40.809Z,14.97
2018-12-18T20:07:44.150Z,13.37
2018-12-18T20:12:47.505Z,13.70
2018-12-18T20:17:50.852Z,15.50
2018-12-18T20:22:54.204Z,16.20
2018-12-18T20:27:57.533Z,16.80
2018-12-18T20:33:01.186Z,17.53
2018-12-18T20:38:04.763Z,17.20
2018-12-18T20:43:08.103Z,17.13
2018-12-18T20:48:11.436Z,18.93
2018-12-18T20:53:14.764Z,14.70
2018-12-18T20:58:18.857Z,17.90
2018-12-18T21:03:22.189Z,16.10
2018-12-18T21:08:26.285Z,16.47
2018-12-18T21:13:29.640Z,14.07
2018-12-18T21:18:32.987Z,16.83
2018-12-18T21:23:36.312Z,14.90
2018-12-18T21:28:39.644Z,12.93
2018-12-18T21:33:42.999Z,14.30
2018-12-18T21:38:46.347Z,14.70
2018-12-18T21:43:49.674Z,17.70
2018-12-18T21:48:53.031Z,16.13
2018-12-18T21:53:56.360Z,14.87
2018-12-18T21:58:59.680Z,14.63
2018-12-18T22:04:03.025Z,14.60
2018-12-18T22:09:06.366Z,14.43
2018-12-18T22:14:09.694Z,13.83
2018-12-18T22:19:13.013Z,14.40
2018-12-18T22:24:16.335Z,16.83
2018-12-18T22:29:19.661Z,13.90
2018-12-18T22:34:23.010Z,15.33
2018-12-18T22:39:26.352Z,15.17
2018-12-18T22:44:29.705Z,16.37
2018-12-18T22:49:33.056Z,16.90
2018-12-18T22:54:36.385Z,17.33
2018-12-18T22:59:39.711Z,13.27
2018-12-18T23:30:31.439Z,15.33
2018-12-18T23:35:34.770Z,14.00
2018-12-18T23:40:38.100Z,16.90
2018-12-18T23:45:41.431Z,18.87
2018-12-18T23:50:45.593Z,15.90
2018-12-18T23:55:48.908Z,16.33
